AirNav   Air Wisconsin Up To $57,000 Bonus
 
 910 users online  

IN32 Hallmark Airport
Francesville, Indiana, USA

GOING TO FRANCESVILLE?


FAA INFORMATION EFFECTIVE 09 SEPTEMBER 2021

Location

FAA Identifier: IN32
Lat/Long: 40-57-19.0000N 086-54-22.0000W
40-57.316667N 086-54.366667W
40.9552778,-86.9061111
(estimated)
Elevation: 695 ft. / 212 m (estimated)
From city: 2 miles SW of FRANCESVILLE, IN
Time zone: UTC -4 (UTC -5 during Standard Time)
Zip code: 47946

Airport Operations

Airport use: Private use. Permission required prior to landing
Activation date: 07/2015
Control tower: no
ARTCC: CHICAGO CENTER
FSS: KANKAKEE FLIGHT SERVICE STATION
Attendance: UNATNDED
Segmented circle: no

Airport Communications

WX AWOS-3P at RZL (13 nm W): 119.175 (219-866-7167)
WX AWOS-3P at MCX (16 nm SE): 124.05 (574-583-0531)

Nearby radio navigation aids

VOR radial/distance  VOR name  Freq  Var
OXIr208/24.9KNOX VOR/DME115.6000E
BVTr016/25.1BOILER VORTAC115.1001E
GUSr301/39.0GRISSOM VORTAC108.4502W

Airport Services

Runway Information

Runway 9/27

Dimensions: 1706 x 100 ft. / 520 x 30 m
Surface: turf
RUNWAY 9  RUNWAY 27
Traffic pattern: leftleft

Airport Ownership and Management from official FAA records

Ownership: Privately-owned
Owner: HARVEY R. GUTWEIN
14166 W 500 S
FRANCESVILLE, IN 47946
Phone 219-863-3778
Manager: HARVEY R. GUTWEIN
14166 W 500 S
FRANCESVILLE, IN 47946
Phone 219-863-3778

Additional Remarks

FOR CD CTC CHICAGO ARTCC AT 630-906-8921.

Instrument Procedures

There are no published instrument procedures at IN32.

Some nearby airports with instrument procedures:

KRZL - Jasper County Airport (13 nm W)
KRWN - Arens Field Airport (16 nm NE)
KMCX - White County Airport (16 nm SE)
KOXI - Starke County Airport (25 nm NE)
50I - Kentland Municipal Airport (27 nm SW)
 
Loc | Ops | Rwys | IFR | FBO | Links
Com | Nav | Svcs | Stats | Notes
Aerial photo
No photo
 
Airport distance calculator
Flying to Hallmark Airport? Find the distance to fly.

From to IN32

Sunrise and sunset
Times for 23-Sep-2021
 Local
(UTC-4)
 Zulu
(UTC)
Morning civil twilight07:1011:10
Sunrise07:3711:37
Sunset19:4323:43
Evening civil twilight20:1000:10

Current date and time
Zulu (UTC)  24-Sep-2021 03:28:31
Local (UTC-4)  23-Sep-2021 23:28:31
 
METAR
KRZL 
13nm W 
240315Z AUTO 00000KT 10SM CLR 08/06 A2999 RMK AO2
KMCX 
16nm SE 
240315Z AUTO 21003KT 10SM CLR 09/05 A2999 RMK AO2 T00910050
KOXI 
25nm NE 
240315Z AUTO 15003KT 10SM CLR 08/07 A2997 RMK AO1
TAF
KLAF 
32nm S 
231740Z 2318/2418 32008KT P6SM BKN035 FM240000 28006KT P6SM FEW250
KGUS 
39nm SE 
232100Z 2321/2503 30020G25KT 9999 FEW035 QNH2994INS BECMG 2323/2324 VRB06KT 9999 FEW045 QNH2998INS BECMG 2417/2418 23015KT 9999 SKC QNH3001INS TX21/2420Z TN05/2408Z LAST NO AMDS AFT 2403 NEXT 2413
NOTAMs
Click for the latest NOTAMs
NOTAMs are issued by the DoD/FAA and will open in a separate window not controlled by AirNav.

 

 
 

Would you like to see your business listed on this page?

 If your business provides an interesting product or service to pilots, flight crews, aircraft, or users of the Hallmark Airport, you should consider listing it here.  To start the listing process, click on the button below
 
Add a business
 

Other Pages about Hallmark Airport

Update a link
 
Copyright © AirNav, LLC. All rights reserved. Privacy Policy  Contact